createdAt,value
2018-12-06T00:01:23.933Z,9.90
2018-12-06T00:03:51.439Z,8.10
2018-12-06T00:06:19.026Z,8.43
2018-12-06T00:08:46.510Z,8.10
2018-12-06T00:11:13.967Z,8.30
2018-12-06T00:13:41.409Z,6.20
2018-12-06T00:16:08.869Z,6.42
2018-12-06T00:18:36.375Z,9.17
2018-12-06T00:21:03.886Z,8.00
2018-12-06T00:23:31.381Z,16.27
2018-12-06T00:25:58.913Z,12.82
2018-12-06T00:28:26.350Z,6.78
2018-12-06T00:30:53.829Z,3.50
2018-12-06T00:33:21.894Z,8.50
2018-12-06T00:35:49.329Z,5.40
2018-12-06T00:38:16.812Z,12.47
2018-12-06T00:40:44.250Z,5.47
2018-12-06T00:43:11.942Z,9.28
2018-12-06T00:45:39.407Z,9.13
2018-12-06T00:48:06.945Z,6.10
2018-12-06T00:50:35.619Z,5.92
2018-12-06T00:53:03.391Z,5.27
2018-12-06T00:55:31.087Z,8.03
2018-12-06T00:57:58.538Z,5.33
2018-12-06T01:00:26.025Z,10.07
2018-12-06T01:02:54.408Z,12.70
2018-12-06T01:05:21.931Z,5.50
2018-12-06T01:07:49.671Z,5.40
2018-12-06T01:10:17.618Z,4.67
2018-12-06T01:12:45.094Z,6.97
2018-12-06T01:15:12.690Z,4.90
2018-12-06T01:17:44.612Z,4.90
2018-12-06T01:20:12.957Z,5.37
2018-12-06T01:22:40.432Z,6.85
2018-12-06T01:25:08.841Z,6.12
2018-12-06T01:27:36.359Z,3.20
2018-12-06T01:30:05.074Z,4.10
2018-12-06T01:32:33.478Z,8.40
2018-12-06T01:35:00.975Z,7.70
2018-12-06T01:37:28.494Z,5.60
2018-12-06T01:39:56.131Z,9.13
2018-12-06T01:42:23.574Z,13.83
2018-12-06T01:44:51.056Z,7.62
2018-12-06T01:47:18.607Z,7.73
2018-12-06T01:49:46.113Z,4.87
2018-12-06T01:52:13.543Z,6.33
2018-12-06T01:54:41.962Z,5.37
2018-12-06T01:57:09.417Z,4.92
2018-12-06T01:59:36.863Z,10.80
2018-12-06T02:02:04.410Z,4.50
2018-12-06T02:04:31.889Z,6.47
2018-12-06T02:06:59.384Z,10.70
2018-12-06T02:09:26.906Z,7.00
2018-12-06T02:11:54.325Z,6.83
2018-12-06T02:14:21.912Z,8.53
2018-12-06T02:16:49.955Z,6.03
2018-12-06T02:19:21.074Z,7.20
2018-12-06T02:24:22.273Z,11.43
2018-12-06T02:26:49.745Z,7.28
2018-12-06T02:29:17.225Z,6.80
2018-12-06T02:31:45.523Z,10.45
2018-12-06T02:34:12.967Z,7.85
2018-12-06T02:36:40.426Z,12.15
2018-12-06T02:39:07.969Z,10.47
2018-12-06T02:41:35.525Z,6.83
2018-12-06T02:44:03.070Z,9.55
2018-12-06T02:46:30.517Z,5.50
2018-12-06T02:49:02.450Z,6.37
2018-12-06T02:51:29.924Z,13.13
2018-12-06T02:53:57.393Z,10.17
2018-12-06T02:56:24.832Z,7.83
2018-12-06T02:58:52.306Z,8.35
2018-12-06T03:01:19.742Z,10.43
2018-12-06T03:03:47.204Z,8.17
2018-12-06T03:06:14.659Z,9.80
2018-12-06T03:08:42.170Z,8.87
2018-12-06T03:11:09.755Z,5.40
2018-12-06T03:13:37.952Z,5.62
2018-12-06T03:16:05.428Z,12.93
2018-12-06T03:18:32.960Z,10.50
2018-12-06T03:21:00.405Z,9.28
2018-12-06T03:23:27.876Z,10.72
2018-12-06T03:25:55.379Z,9.90
2018-12-06T03:28:22.841Z,11.73
2018-12-06T03:30:50.385Z,7.72
2018-12-06T03:33:18.002Z,10.30
2018-12-06T03:35:45.863Z,11.00
2018-12-06T03:38:13.376Z,4.80
2018-12-06T03:40:40.820Z,11.33
2018-12-06T03:43:08.294Z,9.33
2018-12-06T03:45:35.778Z,9.10
2018-12-06T03:48:03.263Z,6.03
2018-12-06T03:50:33.816Z,7.37
2018-12-06T03:53:01.406Z,7.12
2018-12-06T03:55:28.918Z,9.60
2018-12-06T03:57:56.433Z,7.77
2018-12-06T04:00:24.368Z,10.13
2018-12-06T04:02:51.833Z,7.27
2018-12-06T04:05:22.719Z,10.43
2018-12-06T04:07:50.380Z,12.07
2018-12-06T04:10:17.837Z,7.37
2018-12-06T04:12:45.409Z,11.57
2018-12-06T04:15:13.772Z,8.33
2018-12-06T04:17:41.228Z,9.90
2018-12-06T04:20:08.677Z,13.50
2018-12-06T04:22:36.150Z,19.32
2018-12-06T04:25:03.723Z,6.60
2018-12-06T04:27:31.189Z,11.70
2018-12-06T04:29:58.646Z,13.18
2018-12-06T04:32:26.216Z,12.47
2018-12-06T04:34:53.805Z,12.63
2018-12-06T04:37:21.821Z,13.10
2018-12-06T04:39:49.339Z,11.35
2018-12-06T04:42:16.800Z,9.77
2018-12-06T04:44:44.292Z,8.33
2018-12-06T04:47:11.733Z,8.67
2018-12-06T04:49:39.303Z,7.17
2018-12-06T04:52:07.035Z,9.17
2018-12-06T04:54:34.503Z,10.30
2018-12-06T04:57:01.969Z,13.87
2018-12-06T04:59:30.366Z,14.63
2018-12-06T05:01:57.801Z,14.03
2018-12-06T05:04:25.704Z,11.03
2018-12-06T05:06:53.140Z,19.07
2018-12-06T05:09:20.577Z,7.70
2018-12-06T05:11:48.054Z,11.57
2018-12-06T05:14:15.615Z,14.60
2018-12-06T05:16:44.181Z,11.35
2018-12-06T05:19:11.710Z,14.50
2018-12-06T05:21:43.013Z,25.95
2018-12-06T05:24:10.494Z,13.13
2018-12-06T05:26:38.772Z,14.30
2018-12-06T05:29:06.222Z,12.70
2018-12-06T05:31:33.700Z,11.30
2018-12-06T05:34:01.148Z,11.10
2018-12-06T05:36:28.619Z,14.03
2018-12-06T05:38:56.226Z,14.87
2018-12-06T05:41:23.771Z,13.97
2018-12-06T05:43:51.386Z,15.97
2018-12-06T05:46:18.816Z,31.80
2018-12-06T05:48:47.203Z,15.60
2018-12-06T05:51:14.692Z,21.07
2018-12-06T05:53:42.334Z,13.60
2018-12-06T05:58:43.745Z,13.53
2018-12-06T06:01:12.509Z,15.43
2018-12-06T06:03:40.028Z,19.80
2018-12-06T06:06:07.480Z,18.43
2018-12-06T06:08:34.949Z,14.87
2018-12-06T06:11:02.468Z,16.40
2018-12-06T06:13:31.085Z,18.05
2018-12-06T06:15:58.602Z,20.75
2018-12-06T06:18:27.033Z,18.50
2018-12-06T06:20:54.857Z,21.83
2018-12-06T06:23:26.018Z,16.60
2018-12-06T06:25:53.505Z,16.03
2018-12-06T06:30:54.942Z,15.20
2018-12-06T06:33:22.697Z,13.07
2018-12-06T06:35:50.186Z,31.15
2018-12-06T06:38:22.055Z,16.42
2018-12-06T06:40:49.817Z,18.13
2018-12-06T06:43:17.278Z,19.27
2018-12-06T06:45:44.945Z,18.85
2018-12-06T06:48:12.516Z,17.05
2018-12-06T06:50:40.008Z,17.93
2018-12-06T06:53:12.106Z,10.33
2018-12-06T06:55:39.572Z,20.70
2018-12-06T06:58:07.054Z,13.17
2018-12-06T07:00:34.599Z,16.00
2018-12-06T07:03:02.132Z,17.27
2018-12-06T07:05:30.553Z,19.07
2018-12-06T07:07:58.091Z,15.60
2018-12-06T07:10:25.575Z,15.53
2018-12-06T07:12:53.813Z,16.77
2018-12-06T07:15:21.326Z,14.60
2018-12-06T07:17:49.759Z,17.87
2018-12-06T07:20:17.216Z,25.57
2018-12-06T07:22:44.776Z,12.13
2018-12-06T07:25:12.322Z,16.63
2018-12-06T07:27:39.821Z,16.67
2018-12-06T07:30:12.356Z,12.65
2018-12-06T07:32:36.765Z,12.88
2018-12-06T07:35:04.538Z,15.03
2018-12-06T07:37:32.104Z,13.90
2018-12-06T07:39:59.537Z,21.03
2018-12-06T07:42:27.001Z,15.57
2018-12-06T07:44:54.491Z,18.27
2018-12-06T07:47:22.699Z,14.83
2018-12-06T07:49:50.156Z,16.48
2018-12-06T07:52:17.655Z,17.77
2018-12-06T07:54:45.135Z,17.97
2018-12-06T07:57:12.614Z,20.50
2018-12-06T07:59:40.313Z,16.23
2018-12-06T08:02:07.786Z,13.90
2018-12-06T08:04:35.230Z,14.13
2018-12-06T08:07:02.767Z,20.40
2018-12-06T08:09:31.135Z,17.35
2018-12-06T08:11:58.612Z,20.20
2018-12-06T08:14:26.133Z,15.10
2018-12-06T08:16:53.646Z,13.28
2018-12-06T08:19:21.106Z,21.68
2018-12-06T08:21:48.576Z,13.77
2018-12-06T08:24:16.098Z,15.20
2018-12-06T08:26:43.855Z,16.10
2018-12-06T08:29:11.516Z,18.93
2018-12-06T08:31:39.127Z,15.53
2018-12-06T08:34:06.689Z,13.38
2018-12-06T08:36:34.228Z,16.67
2018-12-06T08:39:01.693Z,17.93
2018-12-06T08:41:29.419Z,16.35
2018-12-06T08:43:57.182Z,14.43
2018-12-06T08:46:24.625Z,14.03
2018-12-06T08:48:52.130Z,14.80
2018-12-06T08:51:19.606Z,14.77
2018-12-06T08:53:47.854Z,17.90
2018-12-06T08:56:18.822Z,17.50
2018-12-06T08:58:46.301Z,22.65
2018-12-06T09:01:13.781Z,13.80
2018-12-06T09:03:41.371Z,14.50
2018-12-06T09:06:09.105Z,20.30
2018-12-06T09:08:36.872Z,13.22
2018-12-06T09:11:07.597Z,22.10
2018-12-06T09:13:35.096Z,19.37
2018-12-06T09:16:02.562Z,20.92
2018-12-06T09:18:30.031Z,19.87
2018-12-06T09:20:57.473Z,19.30
2018-12-06T09:23:26.018Z,15.10
2018-12-06T09:25:53.482Z,19.00
2018-12-06T09:28:21.002Z,18.82
2018-12-06T09:30:48.711Z,18.37
2018-12-06T09:33:16.166Z,16.80
2018-12-06T09:35:43.650Z,22.27
2018-12-06T09:38:11.190Z,21.30
2018-12-06T09:40:38.829Z,18.80
2018-12-06T09:43:06.314Z,14.97
2018-12-06T09:45:34.517Z,16.37
2018-12-06T09:48:02.020Z,20.70
2018-12-06T09:50:29.453Z,28.10
2018-12-06T09:52:56.914Z,22.07
2018-12-06T09:55:24.403Z,15.57
2018-12-06T09:57:51.959Z,21.23
2018-12-06T10:00:19.621Z,21.07
2018-12-06T10:02:48.025Z,24.23
2018-12-06T10:05:15.566Z,17.20
2018-12-06T10:07:43.146Z,18.73
2018-12-06T10:10:10.601Z,20.33
2018-12-06T10:12:38.047Z,26.00
2018-12-06T10:15:05.599Z,23.30
2018-12-06T10:17:33.067Z,15.90
2018-12-06T10:20:00.551Z,22.83
2018-12-06T10:22:27.987Z,17.87
2018-12-06T10:24:56.373Z,21.95
2018-12-06T10:27:23.861Z,20.03
2018-12-06T10:29:51.308Z,22.13
2018-12-06T10:32:18.761Z,17.10
2018-12-06T10:34:53.235Z,20.93
2018-12-06T10:37:15.930Z,16.50
2018-12-06T10:39:43.460Z,17.80
2018-12-06T10:42:10.907Z,19.47
2018-12-06T10:44:38.389Z,21.60
2018-12-06T10:47:05.829Z,22.10
2018-12-06T10:49:33.292Z,21.57
2018-12-06T10:52:00.785Z,23.63
2018-12-06T10:54:28.267Z,20.63
2018-12-06T10:56:59.438Z,22.37
2018-12-06T10:59:26.929Z,21.68
2018-12-06T11:05:01.710Z,19.40
2018-12-06T11:07:29.190Z,19.95
2018-12-06T11:09:56.763Z,25.70
2018-12-06T11:12:25.133Z,20.65
2018-12-06T11:14:52.565Z,21.57
2018-12-06T11:17:20.046Z,20.47
2018-12-06T11:19:47.491Z,18.40
2018-12-06T11:22:14.990Z,17.35
2018-12-06T11:24:42.428Z,25.90
2018-12-06T11:27:09.877Z,28.43
2018-12-06T11:29:37.508Z,29.20
2018-12-06T11:32:04.961Z,28.50
2018-12-06T11:34:33.147Z,30.68
2018-12-06T11:37:00.943Z,24.30
2018-12-06T11:39:28.453Z,21.80
2018-12-06T11:41:55.942Z,19.10
2018-12-06T11:44:23.427Z,22.33
2018-12-06T11:46:50.885Z,19.27
2018-12-06T11:49:18.442Z,24.17
2018-12-06T11:51:46.645Z,19.30
2018-12-06T11:54:14.134Z,20.75
2018-12-06T11:56:41.585Z,19.80
2018-12-06T11:59:12.451Z,20.37
2018-12-06T12:01:40.038Z,20.10
2018-12-06T12:04:07.479Z,20.03
2018-12-06T12:06:34.942Z,21.95
2018-12-06T12:09:02.440Z,20.00
2018-12-06T12:11:30.070Z,24.40
2018-12-06T12:13:57.512Z,22.10
2018-12-06T12:16:25.375Z,19.23
2018-12-06T12:18:52.904Z,19.60
2018-12-06T12:21:20.406Z,21.70
2018-12-06T12:23:47.860Z,18.65
2018-12-06T12:26:15.298Z,19.93
2018-12-06T12:28:46.920Z,23.05
2018-12-06T12:31:14.713Z,24.18
2018-12-06T12:33:42.284Z,17.47
2018-12-06T12:36:10.117Z,19.57
2018-12-06T12:38:37.574Z,19.97
2018-12-06T12:41:05.059Z,21.50
2018-12-06T12:43:32.532Z,19.87
2018-12-06T12:46:03.658Z,17.27
2018-12-06T12:48:31.133Z,19.90
2018-12-06T12:50:58.805Z,20.15
2018-12-06T12:53:26.279Z,22.40
2018-12-06T12:55:53.723Z,15.17
2018-12-06T12:58:21.236Z,21.65
2018-12-06T13:00:48.738Z,18.23
2018-12-06T13:03:16.211Z,20.57
2018-12-06T13:05:43.899Z,18.60
2018-12-06T13:08:12.330Z,17.25
2018-12-06T13:10:39.781Z,14.43
2018-12-06T13:13:07.522Z,16.70
2018-12-06T13:15:35.060Z,17.87
2018-12-06T13:18:02.565Z,17.40
2018-12-06T13:20:30.123Z,18.87
2018-12-06T13:22:57.590Z,18.17
2018-12-06T13:25:25.318Z,18.62
2018-12-06T13:27:53.081Z,21.00
2018-12-06T13:30:24.355Z,14.25
2018-12-06T13:32:51.828Z,15.85
2018-12-06T13:35:19.357Z,17.35
2018-12-06T13:37:47.105Z,19.37
2018-12-06T13:40:14.638Z,22.63
2018-12-06T13:42:42.125Z,15.63
2018-12-06T13:45:10.819Z,16.33
2018-12-06T13:47:38.476Z,24.20
2018-12-06T13:50:06.623Z,19.23
2018-12-06T13:52:34.998Z,33.60
2018-12-06T13:55:02.525Z,19.87
2018-12-06T13:57:29.966Z,18.17
2018-12-06T13:59:57.427Z,13.70
2018-12-06T14:02:24.945Z,15.57
2018-12-06T14:04:52.383Z,16.62
2018-12-06T14:07:19.843Z,14.13
2018-12-06T14:09:47.417Z,16.90
2018-12-06T14:12:14.895Z,12.40
2018-12-06T14:14:42.381Z,14.03
2018-12-06T14:17:09.886Z,14.40
2018-12-06T14:19:37.926Z,11.63
2018-12-06T14:22:05.481Z,13.70
2018-12-06T14:24:32.911Z,16.23
2018-12-06T14:27:00.365Z,12.93
2018-12-06T14:29:27.833Z,10.38
2018-12-06T14:31:55.336Z,11.83
2018-12-06T14:34:22.830Z,16.27
2018-12-06T14:37:01.420Z,14.83
2018-12-06T14:39:19.706Z,10.67
2018-12-06T14:41:47.185Z,19.13
2018-12-06T14:44:14.630Z,11.23
2018-12-06T14:46:53.118Z,12.90
2018-12-06T14:49:20.878Z,12.93
2018-12-06T14:51:48.322Z,13.10
2018-12-06T14:54:15.794Z,12.17
2018-12-06T14:56:43.301Z,12.75
2018-12-06T14:59:11.575Z,14.42
2018-12-06T15:01:39.006Z,13.00
2018-12-06T15:04:06.566Z,12.57
2018-12-06T15:06:37.486Z,10.93
2018-12-06T15:09:07.264Z,13.53
2018-12-06T15:11:34.783Z,11.07
2018-12-06T15:14:02.392Z,9.93
2018-12-06T15:16:41.243Z,13.00
2018-12-06T15:19:08.724Z,9.20
2018-12-06T15:21:36.381Z,8.70
2018-12-06T15:24:03.897Z,10.43
2018-12-06T15:26:31.497Z,10.85
2018-12-06T15:28:59.023Z,8.20
2018-12-06T15:31:38.571Z,7.62
2018-12-06T15:34:06.021Z,9.25
2018-12-06T15:36:33.481Z,9.10
2018-12-06T15:39:00.950Z,11.10
2018-12-06T15:41:28.414Z,9.10
2018-12-06T15:43:55.882Z,8.45
2018-12-06T15:46:23.373Z,8.68
2018-12-06T15:48:50.914Z,9.97
2018-12-06T15:51:18.368Z,9.97
2018-12-06T15:53:46.742Z,9.53
2018-12-06T15:56:14.271Z,8.60
2018-12-06T15:58:41.709Z,8.43
2018-12-06T16:01:09.178Z,8.93
2018-12-06T16:03:36.609Z,7.93
2018-12-06T16:06:04.217Z,7.87
2018-12-06T16:08:32.140Z,6.77
2018-12-06T16:10:59.595Z,11.73
2018-12-06T16:13:27.049Z,7.67
2018-12-06T16:15:55.438Z,7.80
2018-12-06T16:18:22.899Z,8.50
2018-12-06T16:20:50.369Z,8.70
2018-12-06T16:23:17.812Z,7.63
2018-12-06T16:25:45.277Z,11.13
2018-12-06T16:28:12.725Z,10.60
2018-12-06T16:30:40.183Z,13.68
2018-12-06T16:33:07.633Z,13.43
2018-12-06T16:35:35.174Z,12.33
2018-12-06T16:38:03.597Z,17.32
2018-12-06T16:40:31.480Z,13.13
2018-12-06T16:42:58.989Z,17.17
2018-12-06T16:45:26.533Z,16.13
2018-12-06T16:47:57.944Z,12.65
2018-12-06T16:50:25.669Z,12.00
2018-12-06T16:52:53.438Z,12.60
2018-12-06T16:55:20.904Z,11.77
2018-12-06T16:57:48.365Z,14.67
2018-12-06T17:00:15.931Z,14.30
2018-12-06T17:02:43.381Z,51.83
2018-12-06T17:05:10.900Z,21.33
2018-12-06T17:07:38.623Z,43.43
2018-12-06T17:10:06.124Z,13.65
2018-12-06T17:12:33.575Z,21.87
2018-12-06T17:15:01.655Z,20.00
2018-12-06T17:17:29.091Z,25.80
2018-12-06T17:19:56.537Z,34.80
2018-12-06T17:22:24.016Z,37.93
2018-12-06T17:24:51.519Z,65.62
2018-12-06T17:27:18.976Z,26.50
2018-12-06T17:29:46.894Z,50.17
2018-12-06T17:32:15.271Z,206.75
2018-12-06T17:34:42.786Z,114.88
2018-12-06T17:37:10.282Z,43.17
2018-12-06T17:39:38.019Z,34.23
2018-12-06T17:42:05.497Z,20.73
2018-12-06T17:44:33.053Z,14.10
2018-12-06T17:47:00.556Z,19.97
2018-12-06T17:49:31.627Z,24.23
2018-12-06T17:51:59.381Z,15.05
2018-12-06T17:54:27.190Z,16.50
2018-12-06T17:56:54.724Z,14.40
2018-12-06T17:59:22.191Z,17.23
2018-12-06T18:01:49.639Z,12.87
2018-12-06T18:04:20.781Z,16.63
2018-12-06T18:06:48.735Z,18.85
2018-12-06T18:09:16.273Z,17.70
2018-12-06T18:11:43.810Z,21.33
2018-12-06T18:14:11.557Z,16.07
2018-12-06T18:16:39.012Z,16.00
2018-12-06T18:19:06.518Z,18.33
2018-12-06T18:21:34.034Z,18.57
2018-12-06T18:27:06.518Z,18.20
2018-12-06T18:32:11.043Z,19.30
2018-12-06T18:34:41.670Z,19.00
2018-12-06T18:37:10.277Z,12.32
2018-12-06T18:39:37.760Z,17.02
2018-12-06T18:42:05.373Z,14.05
2018-12-06T18:44:32.878Z,14.35
2018-12-06T18:47:00.391Z,13.62
2018-12-06T18:49:28.818Z,16.07
2018-12-06T18:51:56.259Z,13.87
2018-12-06T18:54:23.728Z,15.00
2018-12-06T18:56:51.173Z,17.53
2018-12-06T18:59:18.693Z,16.37
2018-12-06T19:01:46.304Z,13.45
2018-12-06T19:04:14.062Z,16.30
2018-12-06T19:06:42.608Z,14.58
2018-12-06T19:09:10.078Z,14.77
2018-12-06T19:11:37.858Z,17.60
2018-12-06T19:14:05.432Z,16.77
2018-12-06T19:16:33.047Z,21.42
2018-12-06T19:19:00.538Z,16.23
2018-12-06T19:21:28.091Z,27.22
2018-12-06T19:23:56.097Z,17.00
2018-12-06T19:26:23.584Z,14.53
2018-12-06T19:28:51.035Z,16.87
2018-12-06T19:31:18.530Z,17.05
2018-12-06T19:33:46.011Z,14.43
2018-12-06T19:36:13.490Z,16.43
2018-12-06T19:38:41.077Z,15.77
2018-12-06T19:41:08.613Z,14.40
2018-12-06T19:43:36.174Z,13.97
2018-12-06T19:46:04.717Z,12.98
2018-12-06T19:48:32.183Z,15.77
2018-12-06T19:50:59.622Z,15.27
2018-12-06T19:53:27.163Z,13.87
2018-12-06T19:55:54.635Z,14.33
2018-12-06T19:58:22.094Z,15.13
2018-12-06T20:00:49.571Z,16.97
2018-12-06T20:03:17.108Z,14.26
2018-12-06T20:05:44.654Z,16.93
2018-12-06T20:08:12.535Z,13.83
2018-12-06T20:10:40.074Z,12.43
2018-12-06T20:13:08.703Z,15.33
2018-12-06T20:15:36.132Z,14.00
2018-12-06T20:18:03.886Z,18.45
2018-12-06T20:20:32.071Z,15.23
2018-12-06T20:22:59.543Z,13.47
2018-12-06T20:25:27.029Z,13.10
2018-12-06T20:27:54.478Z,12.53
2018-12-06T20:30:21.957Z,17.50
2018-12-06T20:32:49.416Z,16.20
2018-12-06T20:35:16.885Z,12.73
2018-12-06T20:37:52.392Z,16.50
2018-12-06T20:40:19.848Z,11.47
2018-12-06T20:42:47.284Z,16.42
2018-12-06T20:45:16.151Z,14.20
2018-12-06T20:47:43.605Z,10.05
2018-12-06T20:50:11.146Z,15.23
2018-12-06T20:52:41.482Z,11.77
2018-12-06T20:55:09.011Z,11.78
2018-12-06T20:57:37.331Z,12.03
2018-12-06T21:00:06.808Z,12.33
2018-12-06T21:02:34.504Z,14.13
2018-12-06T21:05:01.972Z,14.98
2018-12-06T21:07:33.121Z,10.00
2018-12-06T21:10:01.433Z,13.16
2018-12-06T21:12:28.925Z,9.10
2018-12-06T21:14:56.693Z,11.73
2018-12-06T21:17:24.246Z,12.55
2018-12-06T21:19:51.723Z,10.93
2018-12-06T21:22:19.908Z,13.05
2018-12-06T21:24:47.358Z,9.00
2018-12-06T21:27:14.817Z,10.15
2018-12-06T21:29:42.277Z,13.75
2018-12-06T21:32:09.771Z,13.03
2018-12-06T21:34:37.218Z,13.30
2018-12-06T21:37:04.710Z,11.67
2018-12-06T21:39:32.169Z,16.23
2018-12-06T21:41:59.639Z,13.60
2018-12-06T21:44:28.058Z,13.83
2018-12-06T21:46:55.825Z,10.48
2018-12-06T21:49:23.261Z,14.70
2018-12-06T21:51:50.719Z,10.73
2018-12-06T21:54:18.212Z,11.73
2018-12-06T21:56:45.741Z,11.18
2018-12-06T21:59:13.214Z,8.67
2018-12-06T22:01:41.640Z,10.53
2018-12-06T22:04:09.117Z,9.10
2018-12-06T22:06:36.550Z,9.93
2018-12-06T22:09:09.870Z,9.20
2018-12-06T22:11:37.370Z,9.87
2018-12-06T22:14:04.941Z,9.98
2018-12-06T22:16:32.418Z,9.20
2018-12-06T22:18:59.874Z,11.68
2018-12-06T22:21:27.330Z,9.40
2018-12-06T22:23:55.757Z,8.03
2018-12-06T22:26:23.185Z,9.33
2018-12-06T22:28:50.639Z,14.27
2018-12-06T22:31:18.094Z,9.40
2018-12-06T22:33:45.529Z,8.47
2018-12-06T22:36:13.110Z,8.37
2018-12-06T22:38:40.542Z,10.90
2018-12-06T22:41:08.006Z,9.37
2018-12-06T22:43:35.499Z,11.70
2018-12-06T22:46:03.098Z,8.00
2018-12-06T22:48:30.698Z,13.27
2018-12-06T22:50:58.834Z,7.44
2018-12-06T22:53:26.306Z,8.97
2018-12-06T22:55:53.744Z,7.53
2018-12-06T22:58:21.230Z,10.32
2018-12-06T23:00:51.078Z,7.53
2018-12-06T23:03:18.658Z,12.97
2018-12-06T23:05:46.495Z,9.43
2018-12-06T23:08:13.943Z,6.40
2018-12-06T23:10:41.404Z,5.73
2018-12-06T23:13:08.882Z,7.55
2018-12-06T23:15:36.426Z,6.57
2018-12-06T23:18:03.932Z,7.90
2018-12-06T23:20:31.976Z,5.22
2018-12-06T23:23:01.674Z,8.40
2018-12-06T23:25:29.201Z,5.20
2018-12-06T23:27:56.641Z,6.80
2018-12-06T23:30:24.131Z,5.27
2018-12-06T23:32:51.890Z,6.67
2018-12-06T23:35:19.356Z,7.92
2018-12-06T23:37:47.116Z,6.53
2018-12-06T23:40:14.637Z,8.63
2018-12-06T23:42:42.089Z,6.10
2018-12-06T23:45:09.927Z,5.22
2018-12-06T23:47:37.553Z,4.50
2018-12-06T23:50:06.353Z,5.60
2018-12-06T23:52:33.826Z,5.80
2018-12-06T23:55:09.692Z,4.30
2018-12-06T23:57:37.129Z,7.10
